Flight Track Log - Related Links

Times and Time Zones

All times are in EDT time to prevent confusion due to time zone crossing. See the UAL5904 flight status page for this flight to view local times or setup timezone preferences in your user account.

Time Position Orientation Groundspeed Altitude Reporting Facility
EDT Latitude Longitude Course Direction KTS MPH feet Rate Location/Type
Thu 03:03:39 PM 41.9833 -87.9833 20° North 194 223 2,900  Level Chicago TRACON
Thu 03:04:39 PM 42.0500 -87.9500 20° North 257 296 4,200 1,550 Climbing Chicago TRACON
Thu 03:05:39 PM 42.1000 -87.8833 45° Northeast 284 327 6,000 1,850 Climbing Chicago TRACON
Thu 03:06:39 PM 42.1333 -87.8000 62° Northeast 309 356 7,900 1,800 Climbing Chicago TRACON
Thu 03:07:39 PM 42.1167 -87.6833 101° East 312 359 9,600 1,667 Climbing Chicago TRACON
Thu 03:08:09 PM 42.0936 -87.6294 120° Southeast 313 360 10,400 1,565 Climbing Chicago Center
Thu 03:09:11 PM 42.0631 -87.5117 109° East 330 380 12,000 1,548 Climbing Chicago Center
Thu 03:10:13 PM 42.0283 -87.3794 109° East 346 398 13,600 1,403 Climbing Chicago Center
Thu 03:11:15 PM 41.9950 -87.2528 109° East 357 411 14,900 1,161 Climbing Chicago Center
Thu 03:12:17 PM 41.9567 -87.1097 110° East 375 432 16,000 1,056 Climbing Chicago Center
Thu 03:13:20 PM 41.9467 -86.9633 95° East 397 457 17,100 960 Climbing Chicago Center
Thu 03:14:22 PM 41.9389 -86.8178 94° East 394 453 18,000 871 Climbing Chicago Center
Thu 03:15:24 PM 41.9186 -86.6839 101° East 390 449 18,900 677 Climbing Chicago Center
Thu 03:16:26 PM 41.8969 -86.5339 101° East 405 466 19,400 968 Climbing Chicago Center
Thu 03:17:28 PM 41.8711 -86.3525 101° East 413 475 20,900 774 Climbing Chicago Center
Thu 03:18:30 PM 41.8483 -86.1967 101° East 423 487 21,000 48 Climbing Chicago Center
Thu 03:19:32 PM 41.8253 -86.0336 101° East 442 509 21,000  Level Chicago Center
Thu 03:20:34 PM 41.7992 -85.8633 102° East 460 529 21,000  Level Chicago Center
Thu 03:21:36 PM 41.7742 -85.6892 101° East 470 541 21,000  Level Chicago Center
Thu 03:22:38 PM 41.7175 -85.5322 116° Southeast 470 541 21,000  Level Chicago Center
Thu 03:23:41 PM 41.5892 -85.4450 153° Southeast 469 540 21,000  Level Chicago Center
Thu 03:24:43 PM 41.4656 -85.3928 162° South 468 539 21,000  Level Chicago Center
Thu 03:25:45 PM 41.3481 -85.3425 162° South 452 520 21,000  Level Chicago Center
Thu 03:26:47 PM 41.2072 -85.2819 162° South 448 516 21,000  Level Chicago Center
Thu 03:27:50 PM 41.1014 -85.2014 150° Southeast 448 516 21,000  Level Chicago Center
Thu 03:28:51 PM 41.0256 -85.0675 127° Southeast 455 524 21,000  Level Chicago Center
Thu 03:29:54 PM 40.9456 -84.9342 128° Southeast 460 529 21,000  Level Chicago Center
Thu 03:30:56 PM 40.8661 -84.7994 128° Southeast 464 534 21,000  Level Chicago Center
Thu 03:31:58 PM 40.8058 -84.6228 114° Southeast 441 507 21,000  Level Chicago Center
Thu 03:32:33 PM 40.7828 -84.5483 112° Southeast 443 510 21,000 -124 Level Indianapolis Center
Thu 03:33:35 PM 40.7333 -84.3947 113° Southeast 450 518 20,800 -532 Descending Indianapolis Center
Thu 03:34:37 PM 40.6839 -84.2333 112° Southeast 467 537 19,900 -871 Descending Indianapolis Center
Thu 03:35:39 PM 40.6339 -84.0772 113° Southeast 469 540 19,000 -1,161 Descending Indianapolis Center
Thu 03:36:41 PM 40.5753 -83.8939 113° Southeast 457 526 17,500 -1,645 Descending Indianapolis Center
Thu 03:37:43 PM 40.5289 -83.7456 112° Southeast 444 511 15,600 -1,800 Descending Indianapolis Center
Thu 03:38:11 PM 40.5056 -83.6739 113° Southeast 437 503 14,800 -1,645 Descending Indianapolis Center
Thu 03:38:45 PM 40.4814 -83.5983 113° Southeast 441 507 13,900 -1,837 Descending Indianapolis Center
Thu 03:39:00 PM 40.4656 -83.5486 113° Southeast 435 501 13,300 -1,645 Descending Indianapolis Center
Thu 03:39:47 PM 40.4239 -83.4633 123° Southeast 429 494 12,200 -1,700 Descending Indianapolis Center
Thu 03:40:00 PM 40.4047 -83.4200 120° Southeast 416 479 11,600 -1,429 Descending Indianapolis Center
Thu 03:40:50 PM 40.3636 -83.3328 122° Southeast 420 483 10,700 -1,254 Descending Indianapolis Center
Thu 03:41:07 PM 40.3383 -83.2825 123° Southeast 418 481 10,200 -581 Descending Indianapolis Center
Thu 03:41:52 PM 40.3031 -83.2072 122° Southeast 412 474 10,100 -197 Descending Indianapolis Center
Thu 03:42:08 PM 40.2769 -83.1569 124° Southeast 379 436 10,000 -387 Descending Indianapolis Center
Thu 03:42:54 PM 40.2494 -83.0992 122° Southeast 378 435 9,700 -1,282 Descending Indianapolis Center
Thu 03:43:51 PM 40.1939 -82.9928 124° Southeast 305 351 7,800 -1,645 Descending Indianapolis Center
Thu 03:44:58 PM 40.1450 -82.8917 122° Southeast 317 365 6,300 -1,200 Descending Indianapolis Center
Thu 03:45:16 PM 40.1325 -82.8650 122° Southeast 294 338 6,100 -1,161 Descending Indianapolis Center
Thu 03:46:00 PM 40.1014 -82.8028 123° Southeast 304 350 5,100 -1,358 Descending Indianapolis Center
Thu 03:47:02 PM 40.0617 -82.7139 120° Southeast 294 338 3,700 -1,417 Descending Indianapolis Center
Thu 03:47:12 PM 40.0517 -82.6939 123° Southeast 275 316 3,400 -656 Descending Indianapolis Center
Thu 03:48:06 PM 40.0006 -82.6803 168° South 193 222 3,000 -263 Descending Indianapolis Center
Thu 03:49:06 PM 39.9925 -82.7319 259° West 215 247 2,900 -443 Descending Indianapolis Center
Thu 03:50:08 PM 39.9958 -82.7969 274° West 131 151 2,100 -774 Descending Indianapolis Center

Login

Don't have an account? Register now (free) for customized features, flight alerts, and more!